Time;durP1;ratioP1;P1;durP2;ratioP2;P2;SDS_P1;SDS_P2;PMS_P1;PMS_P2;Temp;Humidity;BMP_temperature;BMP_pressure;BME280_temperature;BME280_humidity;BME280_pressure;Samples;Min_cycle;Max_cycle;Signal;HPM_P1;HPM_P2
2023/05/07 00:01:40;;;;;;;40.80;27.48;;;18.40;99.90;;;;;;5090851;28;20043;-72
2023/05/07 00:04:45;;;;;;;37.20;26.48;;;18.40;99.90;;;;;;5091263;28;20055;-72
2023/05/07 00:07:49;;;;;;;42.45;27.65;;;18.30;99.90;;;;;;5091032;28;20232;-71
2023/05/07 00:10:53;;;;;;;45.28;29.63;;;18.00;99.90;;;;;;5090939;28;20051;-72
2023/05/07 00:13:57;;;;;;;45.67;30.17;;;18.00;99.90;;;;;;5091129;28;20043;-71
2023/05/07 00:17:01;;;;;;;41.15;29.50;;;18.00;99.90;;;;;;5090812;28;20051;-71
2023/05/07 00:20:05;;;;;;;49.13;34.30;;;18.10;99.90;;;;;;5090898;28;20360;-71
2023/05/07 00:23:10;;;;;;;45.85;31.70;;;18.00;99.90;;;;;;5090537;28;20043;-72
2023/05/07 00:26:14;;;;;;;45.40;31.65;;;17.90;99.90;;;;;;5090739;28;20043;-71
2023/05/07 00:29:20;;;;;;;45.47;32.45;;;17.90;99.90;;;;;;5089790;28;20407;-71
2023/05/07 00:32:24;;;;;;;47.88;32.40;;;17.90;99.90;;;;;;5089607;28;20062;-72
2023/05/07 00:35:29;;;;;;;48.10;32.42;;;17.90;99.90;;;;;;5089995;28;20085;-71
2023/05/07 00:38:33;;;;;;;46.40;32.80;;;18.00;99.90;;;;;;5090767;28;20043;-72
2023/05/07 00:41:37;;;;;;;49.72;32.03;;;18.00;99.90;;;;;;5090473;28;20040;-71
2023/05/07 00:44:41;;;;;;;50.03;33.05;;;17.90;99.90;;;;;;5092133;28;20062;-72
2023/05/07 00:47:45;;;;;;;48.80;33.58;;;17.90;99.90;;;;;;5094543;28;20051;-71
2023/05/07 00:50:49;;;;;;;49.60;33.72;;;17.90;99.90;;;;;;5093374;28;20050;-71
2023/05/07 00:53:53;;;;;;;50.95;33.15;;;18.00;99.90;;;;;;5094396;28;20360;-71
2023/05/07 00:56:57;;;;;;;47.03;32.67;;;18.00;99.90;;;;;;5094587;28;20047;-72
2023/05/07 01:00:03;;;;;;;50.42;33.08;;;18.10;99.90;;;;;;5093588;28;20039;-72
2023/05/07 01:03:07;;;;;;;50.63;33.10;;;18.10;99.90;;;;;;5093415;28;20047;-72
2023/05/07 01:06:13;;;;;;;49.50;31.75;;;18.10;99.90;;;;;;5093498;28;20043;-73
2023/05/07 01:09:18;;;;;;;50.13;33.10;;;18.20;99.90;;;;;;5094209;28;20517;-72
2023/05/07 01:12:22;;;;;;;51.60;32.80;;;18.20;99.90;;;;;;5093924;28;20403;-72
2023/05/07 01:15:26;;;;;;;51.15;34.25;;;18.30;99.90;;;;;;5093319;28;20044;-72
2023/05/07 01:18:31;;;;;;;46.17;31.98;;;18.20;99.90;;;;;;5093008;28;20536;-72
2023/05/07 01:21:38;;;;;;;53.85;32.47;;;18.10;99.90;;;;;;5093235;28;20039;-72
2023/05/07 01:24:44;;;;;;;52.45;31.73;;;18.20;99.90;;;;;;5093292;28;20035;-72
2023/05/07 01:27:49;;;;;;;48.70;32.38;;;18.20;99.90;;;;;;5092835;28;20514;-72
2023/05/07 01:30:56;;;;;;;45.28;32.83;;;18.20;99.90;;;;;;5092864;28;20079;-72
2023/05/07 01:34:02;;;;;;;47.10;34.13;;;18.00;99.90;;;;;;5092830;28;20042;-72
2023/05/07 01:37:05;;;;;;;54.60;35.97;;;18.00;99.90;;;;;;5093440;28;20071;-72
2023/05/07 01:40:10;;;;;;;52.25;35.40;;;18.00;99.90;;;;;;5093774;28;20039;-72
2023/05/07 01:43:15;;;;;;;55.38;36.15;;;17.90;99.90;;;;;;5093952;28;20051;-72
2023/05/07 01:46:20;;;;;;;52.88;34.35;;;17.90;99.90;;;;;;5092988;28;20039;-71
2023/05/07 01:49:24;;;;;;;54.38;35.90;;;17.90;99.90;;;;;;5092706;28;20047;-72
2023/05/07 01:52:29;;;;;;;53.25;35.47;;;17.90;99.90;;;;;;5092266;28;20055;-72
2023/05/07 01:55:33;;;;;;;61.92;36.00;;;17.90;99.90;;;;;;5093227;28;20043;-72
2023/05/07 01:58:37;;;;;;;56.92;36.17;;;17.90;99.90;;;;;;5092585;28;20059;-72
2023/05/07 02:01:41;;;;;;;55.97;37.50;;;17.90;99.90;;;;;;5092061;28;20043;-72
2023/05/07 02:04:45;;;;;;;60.47;37.80;;;17.90;99.90;;;;;;5092629;28;20054;-72
2023/05/07 02:07:50;;;;;;;62.08;39.25;;;17.90;99.90;;;;;;5092239;28;20502;-72
2023/05/07 02:10:55;;;;;;;71.03;40.97;;;17.80;99.90;;;;;;5092141;28;20055;-72
2023/05/07 02:14:00;;;;;;;63.15;40.83;;;17.80;99.90;;;;;;5092378;28;20035;-72
2023/05/07 02:17:04;;;;;;;68.97;41.42;;;17.80;99.90;;;;;;5093098;28;20047;-72
2023/05/07 02:20:13;;;;;;;63.30;40.55;;;17.80;99.90;;;;;;5092302;28;20043;-72
2023/05/07 02:23:18;;;;;;;65.22;39.92;;;17.80;99.90;;;;;;5091904;28;20403;-72
2023/05/07 02:26:22;;;;;;;70.85;41.08;;;17.70;99.90;;;;;;5092029;28;20458;-72
2023/05/07 02:29:26;;;;;;;58.85;37.92;;;17.80;99.90;;;;;;5080263;28;20047;-72
2023/05/07 02:32:31;;;;;;;58.50;37.30;;;17.70;99.90;;;;;;5091722;28;20055;-72
2023/05/07 02:35:35;;;;;;;58.33;35.47;;;17.70;99.90;;;;;;5091907;28;20043;-71
2023/05/07 02:38:39;;;;;;;61.75;36.00;;;17.70;99.90;;;;;;5092708;28;20483;-72
2023/05/07 02:41:43;;;;;;;61.00;39.97;;;17.60;99.90;;;;;;5091914;28;20047;-71
2023/05/07 02:44:47;;;;;;;68.10;42.45;;;17.50;99.90;;;;;;5092659;28;20051;-71
2023/05/07 02:47:52;;;;;;;67.35;42.45;;;17.50;99.90;;;;;;5091490;28;20047;-71
2023/05/07 02:50:56;;;;;;;67.05;39.42;;;17.60;99.90;;;;;;5091487;28;20078;-70
2023/05/07 02:54:01;;;;;;;61.15;41.70;;;17.50;99.90;;;;;;5091828;28;20384;-72
2023/05/07 02:57:06;;;;;;;70.05;42.30;;;17.50;99.90;;;;;;5091425;28;20063;-72
2023/05/07 03:00:14;;;;;;;63.33;40.20;;;17.40;99.90;;;;;;5091491;28;20043;-72
2023/05/07 03:03:23;;;;;;;77.93;42.20;;;17.50;99.90;;;;;;5091594;28;20055;-72
2023/05/07 03:06:27;;;;;;;62.47;40.50;;;17.40;99.90;;;;;;5090795;28;20047;-72
2023/05/07 03:09:31;;;;;;;64.43;40.45;;;17.50;99.90;;;;;;5091148;28;20055;-72
2023/05/07 03:12:36;;;;;;;65.97;41.50;;;17.50;99.90;;;;;;5090990;28;20046;-71
2023/05/07 03:15:40;;;;;;;62.33;40.63;;;17.50;99.90;;;;;;5091706;28;20039;-72
2023/05/07 03:18:44;;;;;;;64.70;40.00;;;17.50;99.90;;;;;;5090706;28;20050;-72
2023/05/07 03:21:48;;;;;;;65.38;38.30;;;17.40;99.90;;;;;;5091691;28;20506;-72
2023/05/07 03:24:52;;;;;;;61.30;37.90;;;17.50;99.90;;;;;;5090970;28;20059;-72
2023/05/07 03:27:56;;;;;;;62.60;39.50;;;17.70;99.90;;;;;;5090431;28;20047;-72
2023/05/07 03:31:04;;;;;;;53.72;36.65;;;17.70;99.90;;;;;;5091019;28;20514;-72
2023/05/07 03:34:09;;;;;;;51.95;36.22;;;17.70;99.90;;;;;;5090718;28;20043;-72
2023/05/07 03:37:13;;;;;;;53.83;34.45;;;17.70;99.90;;;;;;5091505;28;20502;-72
2023/05/07 03:40:17;;;;;;;58.05;34.95;;;17.60;99.90;;;;;;5090635;28;20415;-72
2023/05/07 03:43:25;;;;;;;53.60;34.40;;;17.60;99.90;;;;;;5090930;28;20486;-72
2023/05/07 03:46:37;;;;;;;57.83;35.60;;;17.60;99.90;;;;;;5090968;28;20050;-72
2023/05/07 03:49:41;;;;;;;54.35;34.13;;;17.60;99.90;;;;;;5093151;28;20050;-72
2023/05/07 03:52:45;;;;;;;50.08;35.67;;;17.60;99.90;;;;;;5090592;28;20055;-72
2023/05/07 03:55:51;;;;;;;54.47;34.63;;;17.50;99.90;;;;;;5090711;28;20047;-73
2023/05/07 03:58:55;;;;;;;50.13;33.05;;;17.40;99.90;;;;;;5090391;28;20063;-72
2023/05/07 04:01:59;;;;;;;54.45;35.65;;;17.30;99.90;;;;;;5090941;28;20035;-72
2023/05/07 04:05:05;;;;;;;52.85;34.47;;;16.80;99.90;;;;;;5090459;28;20047;-73
2023/05/07 04:08:08;;;;;;;55.63;36.15;;;17.20;99.90;;;;;;5089943;28;20043;-73
2023/05/07 04:11:17;;;;;;;57.50;36.10;;;17.30;99.90;;;;;;5090214;28;20059;-72
2023/05/07 04:14:21;;;;;;;56.17;33.75;;;17.30;99.90;;;;;;5089871;28;20048;-72
2023/05/07 04:17:26;;;;;;;51.33;34.00;;;17.30;99.90;;;;;;5090039;28;20062;-72
2023/05/07 04:20:30;;;;;;;51.88;36.63;;;17.40;99.90;;;;;;5090168;28;20039;-72
2023/05/07 04:23:39;;;;;;;50.67;34.13;;;17.40;99.90;;;;;;5089960;28;20047;-73
2023/05/07 04:26:47;;;;;;;59.97;36.67;;;17.20;99.90;;;;;;5089622;28;20047;-72
2023/05/07 04:29:51;;;;;;;57.92;36.28;;;17.20;99.90;;;;;;5089837;28;20055;-73
2023/05/07 04:32:56;;;;;;;55.60;35.65;;;17.00;99.90;;;;;;5089875;28;20071;-72
2023/05/07 04:36:03;;;;;;;54.25;35.75;;;17.00;99.90;;;;;;5090035;28;20106;-73
2023/05/07 04:39:10;;;;;;;50.35;34.58;;;17.00;99.90;;;;;;5090030;28;20380;-73
2023/05/07 04:42:18;;;;;;;54.20;36.78;;;17.00;99.90;;;;;;5089580;28;20051;-72
2023/05/07 04:45:22;;;;;;;49.75;35.42;;;17.10;99.90;;;;;;5089597;28;20039;-72
2023/05/07 04:48:28;;;;;;;59.67;38.88;;;17.10;99.90;;;;;;5089657;28;20525;-72
2023/05/07 04:51:33;;;;;;;58.05;37.65;;;17.20;99.90;;;;;;5089774;28;20055;-72
2023/05/07 04:54:37;;;;;;;56.22;35.53;;;17.70;99.90;;;;;;5089618;28;20503;-72
2023/05/07 04:57:42;;;;;;;66.25;44.17;;;18.20;99.90;;;;;;5089474;28;20047;-72
2023/05/07 05:00:49;;;;;;;84.85;54.15;;;18.80;99.90;;;;;;5089504;28;20039;-72
2023/05/07 05:03:53;;;;;;;102.47;61.72;;;19.50;99.90;;;;;;5090457;28;20043;-72
2023/05/07 05:06:58;;;;;;;77.50;47.28;;;19.60;99.90;;;;;;5089899;28;20051;-72
2023/05/07 05:10:05;;;;;;;74.32;44.40;;;19.90;99.90;;;;;;5089968;28;20043;-71
2023/05/07 05:13:12;;;;;;;62.20;41.55;;;19.70;99.90;;;;;;5089413;28;20063;-72
2023/05/07 05:16:17;;;;;;;69.25;42.78;;;19.60;99.90;;;;;;5089578;28;20043;-71
2023/05/07 05:19:21;;;;;;;78.35;47.42;;;19.40;99.90;;;;;;5089538;28;20071;-71
2023/05/07 05:22:25;;;;;;;62.78;40.08;;;19.20;99.90;;;;;;5089211;28;20507;-71
2023/05/07 05:25:30;;;;;;;60.35;40.00;;;19.10;99.90;;;;;;5089323;28;20148;-72
2023/05/07 05:28:35;;;;;;;54.17;36.90;;;19.00;99.90;;;;;;5088998;28;20098;-72
2023/05/07 05:31:41;;;;;;;57.83;36.00;;;19.10;99.90;;;;;;5093012;28;20514;-72
2023/05/07 05:34:45;;;;;;;62.53;40.50;;;19.60;99.90;;;;;;5093149;28;20047;-72
2023/05/07 05:37:49;;;;;;;75.50;45.95;;;19.90;99.90;;;;;;5092758;28;20043;-72
2023/05/07 05:40:55;;;;;;;106.85;63.85;;;20.20;99.90;;;;;;5093124;28;20051;-72
2023/05/07 05:43:59;;;;;;;74.47;47.08;;;20.50;99.90;;;;;;5081105;28;20059;-72
2023/05/07 05:47:03;;;;;;;57.78;38.60;;;20.70;99.90;;;;;;5092625;28;20478;-73
2023/05/07 05:50:09;;;;;;;63.20;40.42;;;20.40;99.90;;;;;;5092609;28;20047;-72
2023/05/07 05:53:13;;;;;;;63.95;41.30;;;20.50;99.90;;;;;;5092377;28;20051;-73
2023/05/07 05:56:17;;;;;;;59.03;39.45;;;20.70;99.90;;;;;;5092671;28;20047;-73
2023/05/07 05:59:21;;;;;;;64.93;39.92;;;20.80;99.90;;;;;;5093014;28;20047;-72
2023/05/07 06:02:25;;;;;;;56.58;38.42;;;21.10;99.90;;;;;;5092511;28;20388;-72
2023/05/07 06:05:30;;;;;;;56.15;38.22;;;21.30;99.90;;;;;;5092865;28;20043;-73
2023/05/07 06:08:35;;;;;;;58.67;38.35;;;21.60;99.50;;;;;;5092002;28;20043;-72
2023/05/07 06:11:40;;;;;;;58.42;36.65;;;21.80;99.00;;;;;;5092195;28;20517;-70
2023/05/07 06:14:45;;;;;;;61.67;36.33;;;22.10;98.60;;;;;;5092164;28;20613;-70
2023/05/07 06:17:50;;;;;;;51.95;35.40;;;22.30;98.10;;;;;;5092748;28;20059;-70
2023/05/07 06:20:54;;;;;;;56.03;35.95;;;22.40;97.70;;;;;;5092032;28;20502;-70
2023/05/07 06:24:03;;;;;;;54.03;35.75;;;22.60;97.80;;;;;;5091948;28;20051;-73
2023/05/07 06:27:07;;;;;;;50.53;34.97;;;22.80;97.40;;;;;;5091976;28;20047;-73
2023/05/07 06:30:12;;;;;;;49.65;34.38;;;23.10;96.90;;;;;;5091878;28;20051;-70
2023/05/07 06:33:16;;;;;;;52.65;33.15;;;23.40;96.50;;;;;;5091601;28;20055;-72
2023/05/07 06:36:20;;;;;;;54.83;33.78;;;23.70;96.10;;;;;;5091847;28;20402;-72
2023/05/07 06:39:24;;;;;;;50.25;35.00;;;23.80;95.50;;;;;;5091628;28;20051;-72
2023/05/07 06:42:29;;;;;;;50.08;31.85;;;23.70;95.50;;;;;;5090410;28;20058;-73
2023/05/07 06:45:37;;;;;;;51.65;33.28;;;24.00;95.50;;;;;;5091510;28;20051;-72
2023/05/07 06:48:43;;;;;;;50.17;34.50;;;24.10;94.90;;;;;;5091685;28;20063;-72
2023/05/07 06:51:47;;;;;;;52.30;34.17;;;24.20;94.80;;;;;;5091407;28;20051;-72
2023/05/07 06:54:51;;;;;;;49.03;31.48;;;24.20;94.60;;;;;;5092123;28;20066;-73
2023/05/07 06:58:00;;;;;;;46.65;30.95;;;24.50;94.50;;;;;;5091609;28;20094;-74
2023/05/07 07:01:05;;;;;;;45.30;33.33;;;24.80;94.00;;;;;;5090777;28;20046;-72
2023/05/07 07:04:10;;;;;;;42.50;31.02;;;24.70;93.20;;;;;;5091239;28;20392;-73
2023/05/07 07:07:15;;;;;;;48.50;33.15;;;24.70;93.80;;;;;;5091019;28;20039;-72
2023/05/07 07:10:23;;;;;;;47.03;31.90;;;24.60;93.40;;;;;;5090938;28;20039;-71
2023/05/07 07:13:28;;;;;;;45.38;30.60;;;24.70;93.70;;;;;;5090870;28;20055;-73
2023/05/07 07:16:32;;;;;;;42.00;29.90;;;24.80;93.30;;;;;;5079304;28;20043;-72
2023/05/07 07:19:37;;;;;;;47.65;30.88;;;25.10;93.00;;;;;;5090687;28;20067;-71
2023/05/07 07:22:42;;;;;;;47.38;31.77;;;25.40;92.80;;;;;;5090718;28;20051;-73
2023/05/07 07:25:46;;;;;;;45.03;28.20;;;25.30;92.50;;;;;;5091626;28;20105;-72
2023/05/07 07:28:50;;;;;;;40.38;27.88;;;25.40;92.70;;;;;;5090332;28;20502;-72
2023/05/07 07:31:58;;;;;;;41.10;27.90;;;25.80;92.20;;;;;;5090839;28;20055;-74
2023/05/07 07:35:03;;;;;;;40.15;28.40;;;25.90;91.80;;;;;;5090606;28;20043;-74
2023/05/07 07:38:06;;;;;;;46.70;29.48;;;26.10;91.30;;;;;;5091719;28;20368;-73
2023/05/07 07:41:11;;;;;;;40.65;28.60;;;26.10;91.00;;;;;;5090482;28;20039;-72
2023/05/07 07:44:15;;;;;;;40.78;25.17;;;26.20;90.90;;;;;;5090380;28;20075;-72
2023/05/07 07:47:19;;;;;;;42.55;25.45;;;26.00;91.10;;;;;;5090303;28;20043;-73
2023/05/07 07:50:25;;;;;;;37.25;24.88;;;26.20;90.70;;;;;;5090501;28;20047;-73
2023/05/07 07:53:30;;;;;;;41.17;24.60;;;26.50;90.40;;;;;;5089728;28;20047;-73
2023/05/07 07:56:34;;;;;;;37.17;24.45;;;26.60;89.40;;;;;;5090549;28;20514;-74
2023/05/07 07:59:39;;;;;;;39.72;25.83;;;26.70;88.50;;;;;;5078810;28;20059;-73
2023/05/07 08:02:45;;;;;;;39.15;26.77;;;26.70;89.00;;;;;;5090006;28;20047;-73
2023/05/07 08:05:57;;;;;;;41.97;25.52;;;26.60;88.80;;;;;;5090426;28;20051;-73
2023/05/07 08:09:02;;;;;;;38.05;24.15;;;26.70;88.90;;;;;;5090200;28;20131;-73
2023/05/07 08:12:06;;;;;;;45.55;27.75;;;26.90;89.00;;;;;;5089926;28;20059;-72
2023/05/07 08:15:11;;;;;;;46.05;27.15;;;26.60;88.90;;;;;;5090240;28;20043;-72
2023/05/07 08:18:16;;;;;;;38.03;27.50;;;26.40;88.80;;;;;;5089957;28;20067;-72
2023/05/07 08:21:22;;;;;;;34.92;25.63;;;26.60;88.70;;;;;;5090037;28;20051;-72
2023/05/07 08:24:26;;;;;;;39.45;28.20;;;26.60;88.50;;;;;;5090169;28;20047;-74
2023/05/07 08:27:30;;;;;;;41.75;28.27;;;26.60;87.70;;;;;;5089956;28;20164;-73
2023/05/07 08:30:35;;;;;;;30.10;22.83;;;26.50;87.90;;;;;;5090160;28;20504;-73
2023/05/07 08:33:40;;;;;;;37.65;26.35;;;26.50;88.80;;;;;;5090526;28;20051;-74
2023/05/07 08:36:46;;;;;;;37.92;26.10;;;26.50;87.70;;;;;;5078030;28;20048;-74
2023/05/07 08:39:53;;;;;;;28.55;20.45;;;26.40;88.10;;;;;;5089618;28;20051;-72
2023/05/07 08:43:01;;;;;;;37.65;27.42;;;26.50;88.70;;;;;;5089977;28;20051;-72
2023/05/07 08:46:10;;;;;;;40.50;27.75;;;26.60;87.10;;;;;;5089728;28;20047;-72
2023/05/07 08:49:17;;;;;;;33.22;24.05;;;26.00;88.30;;;;;;5089666;28;20047;-71
2023/05/07 08:52:21;;;;;;;34.13;25.30;;;26.00;89.70;;;;;;5089619;28;20059;-72
2023/05/07 08:55:25;;;;;;;43.10;27.00;;;26.20;87.90;;;;;;5089642;28;20059;-72
2023/05/07 08:58:30;;;;;;;34.42;21.20;;;26.20;88.00;;;;;;5089794;28;20427;-72
2023/05/07 09:01:35;;;;;;;37.08;26.90;;;26.50;88.80;;;;;;5089535;28;20044;-73
2023/05/07 09:04:40;;;;;;;32.03;22.45;;;26.70;87.70;;;;;;5088853;28;20051;-74
2023/05/07 09:07:45;;;;;;;35.03;23.92;;;26.90;87.20;;;;;;5094105;28;20043;-73
2023/05/07 09:10:52;;;;;;;31.60;20.92;;;26.70;87.30;;;;;;5093310;28;20051;-73
2023/05/07 09:14:01;;;;;;;29.70;21.20;;;26.80;87.50;;;;;;5092878;28;20055;-73
2023/05/07 09:17:06;;;;;;;35.45;24.98;;;26.80;87.10;;;;;;5093339;28;20043;-74
2023/05/07 09:20:10;;;;;;;30.90;19.92;;;26.80;86.40;;;;;;5094150;28;20043;-73
2023/05/07 09:23:15;;;;;;;29.67;22.10;;;26.50;87.50;;;;;;5093071;28;20039;-73
2023/05/07 09:26:24;;;;;;;33.72;24.05;;;26.50;87.30;;;;;;5093214;28;20047;-73
2023/05/07 09:29:30;;;;;;;33.67;23.83;;;26.50;87.40;;;;;;5093069;28;20047;-74
2023/05/07 09:32:40;;;;;;;35.67;24.15;;;26.10;87.80;;;;;;5093892;28;20400;-74
2023/05/07 09:35:54;;;;;;;34.10;21.77;;;25.70;88.30;;;;;;5093002;28;20544;-74
2023/05/07 09:39:00;;;;;;;32.47;23.35;;;25.60;90.00;;;;;;5092501;28;20047;-73
2023/05/07 09:42:04;;;;;;;31.80;21.50;;;25.80;89.40;;;;;;5093021;28;20051;-73
2023/05/07 09:45:12;;;;;;;24.40;17.67;;;26.00;89.30;;;;;;5092833;28;20050;-73
2023/05/07 09:48:19;;;;;;;27.58;20.42;;;26.10;89.10;;;;;;5092601;28;20115;-73
2023/05/07 09:51:29;;;;;;;27.42;21.17;;;26.00;88.80;;;;;;5092630;28;20196;-73
2023/05/07 09:54:37;;;;;;;22.88;17.83;;;26.10;88.60;;;;;;5092641;28;20141;-73
2023/05/07 09:57:43;;;;;;;23.38;17.48;;;26.30;88.30;;;;;;5093139;28;20498;-74
2023/05/07 10:00:48;;;;;;;30.45;19.95;;;26.50;88.00;;;;;;5092462;28;20039;-73
2023/05/07 10:03:54;;;;;;;28.48;17.52;;;26.70;88.00;;;;;;5092744;28;20035;-74
2023/05/07 10:06:59;;;;;;;20.75;16.05;;;26.90;87.60;;;;;;5092725;28;20043;-74
2023/05/07 10:10:06;;;;;;;18.05;14.38;;;27.10;87.10;;;;;;5092353;28;20039;-74
2023/05/07 10:13:15;;;;;;;26.83;20.15;;;27.20;86.80;;;;;;5092066;28;20055;-74
2023/05/07 10:16:25;;;;;;;24.80;16.95;;;27.30;85.40;;;;;;5091993;28;20502;-73
2023/05/07 10:19:30;;;;;;;27.10;19.15;;;27.10;85.30;;;;;;5092285;28;20055;-72
2023/05/07 10:22:43;;;;;;;25.20;15.10;;;27.00;85.60;;;;;;5092080;28;20043;-73
2023/05/07 10:25:50;;;;;;;24.80;18.27;;;26.90;86.60;;;;;;5092156;28;20039;-73
2023/05/07 10:29:07;;;;;;;19.25;13.95;;;27.00;86.30;;;;;;5091589;28;20056;-73
2023/05/07 10:32:48;;;;;;;30.13;16.77;;;27.10;86.50;;;;;;5091778;28;20511;-73
2023/05/07 10:36:04;;;;;;;26.63;20.63;;;27.20;86.00;;;;;;5092069;28;20043;-73
2023/05/07 10:39:10;;;;;;;26.10;18.38;;;27.30;86.00;;;;;;5091500;28;20047;-73
2023/05/07 10:42:15;;;;;;;20.33;13.50;;;27.20;86.20;;;;;;5091833;28;20043;-73
2023/05/07 10:45:26;;;;;;;16.63;14.55;;;27.20;85.50;;;;;;5091720;28;20043;-72
2023/05/07 10:48:32;;;;;;;21.33;13.02;;;27.20;84.80;;;;;;5091711;28;20070;-73
2023/05/07 10:51:41;;;;;;;24.75;16.50;;;27.10;85.40;;;;;;5091425;28;20546;-72
2023/05/07 10:55:19;;;;;;;18.88;13.85;;;27.10;85.40;;;;;;5092424;28;20055;-72
2023/05/07 10:58:49;;;;;;;12.30;9.98;;;27.00;86.10;;;;;;5092192;28;20062;-73
2023/05/07 11:02:05;;;;;;;14.27;9.98;;;27.00;86.20;;;;;;5091297;28;20039;-73
2023/05/07 11:05:23;;;;;;;15.60;12.95;;;27.10;86.00;;;;;;5091551;28;20047;-73
2023/05/07 11:08:53;;;;;;;20.00;16.08;;;27.20;85.50;;;;;;5091463;28;20047;-74
2023/05/07 11:11:58;;;;;;;19.40;13.55;;;27.10;84.40;;;;;;5091158;28;20602;-73
2023/05/07 11:15:38;;;;;;;18.63;12.88;;;26.90;85.80;;;;;;5091015;28;20047;-74
2023/05/07 11:18:51;;;;;;;14.07;9.60;;;26.90;86.00;;;;;;5091236;28;20487;-73
2023/05/07 11:22:01;;;;;;;21.83;15.27;;;27.00;86.40;;;;;;5090830;28;20039;-74
2023/05/07 11:25:19;;;;;;;24.17;13.88;;;27.00;86.10;;;;;;5091087;28;20047;-73
2023/05/07 11:28:29;;;;;;;14.13;11.00;;;27.10;86.70;;;;;;5089940;28;20051;-73
2023/05/07 11:31:39;;;;;;;18.75;13.65;;;27.10;85.70;;;;;;5091194;28;20067;-74
2023/05/07 11:34:45;;;;;;;15.50;12.98;;;27.10;85.50;;;;;;5090818;28;20400;-74
2023/05/07 11:37:49;;;;;;;19.25;12.73;;;27.10;85.10;;;;;;5091562;28;20054;-74
2023/05/07 11:40:56;;;;;;;11.52;8.85;;;27.10;85.50;;;;;;5090747;28;20043;-73
2023/05/07 11:44:00;;;;;;;17.85;12.55;;;27.10;86.10;;;;;;5092404;28;20055;-73
2023/05/07 11:47:05;;;;;;;14.57;11.52;;;27.10;85.70;;;;;;5091365;28;20598;-73
2023/05/07 11:50:10;;;;;;;15.98;10.82;;;27.20;85.30;;;;;;5091480;28;20059;-73
2023/05/07 11:53:14;;;;;;;14.40;9.20;;;27.20;84.40;;;;;;5091377;28;20055;-73
2023/05/07 11:56:19;;;;;;;11.45;8.63;;;27.20;84.90;;;;;;5091682;28;20386;-73
2023/05/07 11:59:23;;;;;;;11.07;7.88;;;27.20;84.70;;;;;;5091370;28;20043;-73
2023/05/07 12:02:28;;;;;;;12.20;10.27;;;27.20;84.80;;;;;;5091278;28;20403;-74
2023/05/07 12:05:32;;;;;;;20.15;12.50;;;27.20;82.80;;;;;;5091304;28;20043;-73
2023/05/07 12:08:40;;;;;;;10.32;8.27;;;27.00;82.70;;;;;;5091328;28;20475;-74
2023/05/07 12:11:46;;;;;;;10.73;7.28;;;27.00;83.00;;;;;;5091419;28;20059;-73
2023/05/07 12:14:50;;;;;;;14.32;9.13;;;27.00;83.30;;;;;;5090996;28;20542;-73
2023/05/07 12:17:54;;;;;;;10.82;9.07;;;27.10;83.90;;;;;;5091162;28;20055;-73
2023/05/07 12:20:59;;;;;;;17.50;10.98;;;27.10;82.80;;;;;;5091113;28;20040;-73
2023/05/07 12:24:03;;;;;;;10.40;9.18;;;27.10;84.00;;;;;;5091394;28;20047;-75
2023/05/07 12:27:09;;;;;;;14.13;10.25;;;27.10;84.30;;;;;;5090804;28;20652;-74
2023/05/07 12:30:13;;;;;;;15.02;12.52;;;27.10;84.20;;;;;;5091038;28;20391;-74
2023/05/07 12:33:25;;;;;;;18.17;12.05;;;27.10;84.80;;;;;;5090961;28;20059;-74
2023/05/07 12:36:38;;;;;;;15.50;9.85;;;27.10;85.00;;;;;;5091130;28;20039;-73
2023/05/07 12:39:48;;;;;;;11.60;9.55;;;27.10;85.60;;;;;;5093547;28;20051;-73
2023/05/07 12:42:56;;;;;;;15.30;9.23;;;27.00;85.90;;;;;;5095169;28;20480;-73
2023/05/07 12:46:06;;;;;;;8.60;7.70;;;27.00;86.10;;;;;;5095026;28;20039;-73
2023/05/07 12:49:11;;;;;;;13.90;10.15;;;27.00;86.10;;;;;;5095149;28;20391;-73
2023/05/07 12:52:16;;;;;;;12.50;10.20;;;27.00;86.70;;;;;;5094889;28;20498;-74
2023/05/07 12:55:19;;;;;;;13.23;8.55;;;26.90;87.20;;;;;;5094733;28;20510;-73
2023/05/07 12:58:33;;;;;;;11.32;10.02;;;26.90;87.80;;;;;;5094486;28;20383;-72
2023/05/07 13:01:37;;;;;;;10.30;8.93;;;26.90;87.50;;;;;;5094965;28;20047;-73
2023/05/07 13:04:41;;;;;;;9.40;7.93;;;26.80;87.60;;;;;;5094448;28;20043;-72
2023/05/07 13:07:53;;;;;;;9.43;8.50;;;26.80;87.80;;;;;;5094736;28;20498;-73
2023/05/07 13:11:03;;;;;;;10.85;8.25;;;26.70;88.20;;;;;;5094711;28;20039;-74
2023/05/07 13:14:08;;;;;;;18.38;7.75;;;26.70;87.70;;;;;;5094391;28;20538;-74
2023/05/07 13:17:12;;;;;;;9.57;7.68;;;26.60;88.00;;;;;;5094210;28;20046;-73
2023/05/07 13:20:16;;;;;;;10.63;7.05;;;26.50;88.20;;;;;;5094190;28;20054;-72
2023/05/07 13:23:21;;;;;;;9.02;7.50;;;26.50;87.40;;;;;;5094457;28;20047;-74
2023/05/07 13:26:25;;;;;;;11.40;8.20;;;26.50;87.90;;;;;;5094220;28;20051;-74
2023/05/07 13:29:30;;;;;;;10.00;6.88;;;26.40;87.20;;;;;;5094302;28;20188;-74
2023/05/07 13:32:34;;;;;;;14.82;6.57;;;26.40;86.80;;;;;;5094000;28;20051;-72
2023/05/07 13:35:38;;;;;;;13.25;6.88;;;26.30;86.50;;;;;;5093782;28;20514;-73
2023/05/07 13:38:42;;;;;;;7.82;6.38;;;26.30;87.10;;;;;;5093721;28;20043;-73
2023/05/07 13:41:46;;;;;;;6.72;6.03;;;26.30;86.90;;;;;;5093627;28;20043;-73
2023/05/07 13:44:50;;;;;;;6.75;5.53;;;26.30;86.50;;;;;;5093875;28;20047;-72
2023/05/07 13:47:53;;;;;;;6.10;4.95;;;26.30;86.00;;;;;;5093473;28;20497;-72
2023/05/07 13:50:57;;;;;;;7.88;5.00;;;26.30;85.30;;;;;;5093163;28;20043;-73
2023/05/07 13:54:01;;;;;;;6.65;5.30;;;26.30;85.60;;;;;;5093288;28;20055;-73
2023/05/07 13:57:05;;;;;;;4.82;4.43;;;26.30;84.20;;;;;;5093757;28;20047;-73
2023/05/07 14:00:10;;;;;;;5.45;4.28;;;26.30;83.80;;;;;;5093382;28;20047;-73
2023/05/07 14:03:20;;;;;;;6.03;4.10;;;26.30;83.90;;;;;;5093517;28;20043;-73
2023/05/07 14:06:24;;;;;;;7.55;4.50;;;26.30;82.60;;;;;;5093463;28;20395;-73
2023/05/07 14:09:28;;;;;;;5.30;3.42;;;26.30;82.50;;;;;;5092382;28;20502;-73
2023/05/07 14:12:33;;;;;;;5.05;3.65;;;26.20;81.30;;;;;;5093378;28;20054;-72
2023/05/07 14:15:37;;;;;;;4.68;3.75;;;26.20;80.80;;;;;;5093150;28;20059;-72
2023/05/07 14:18:42;;;;;;;3.75;3.28;;;26.20;79.80;;;;;;5093165;28;20043;-72
2023/05/07 14:21:46;;;;;;;6.55;4.03;;;26.20;80.30;;;;;;5093287;28;20051;-73
2023/05/07 14:24:50;;;;;;;3.85;3.35;;;26.20;79.90;;;;;;5093265;28;20499;-73
2023/05/07 14:27:54;;;;;;;3.75;3.25;;;26.20;79.70;;;;;;5092761;28;20075;-72
2023/05/07 14:30:58;;;;;;;4.75;2.92;;;26.20;79.80;;;;;;5092838;28;20411;-74
2023/05/07 14:34:02;;;;;;;4.32;3.53;;;26.20;79.50;;;;;;5092758;28;20059;-74
2023/05/07 14:37:06;;;;;;;4.10;3.03;;;26.20;79.20;;;;;;5092588;28;20491;-72
2023/05/07 14:40:10;;;;;;;4.28;3.35;;;26.20;79.20;;;;;;5092570;28;20384;-72
2023/05/07 14:43:14;;;;;;;4.10;3.13;;;26.20;79.30;;;;;;5092755;28;20035;-73
2023/05/07 14:46:18;;;;;;;8.98;3.22;;;26.20;78.20;;;;;;5092292;28;20051;-75
2023/05/07 14:49:23;;;;;;;3.10;2.70;;;26.20;76.30;;;;;;5092420;28;20051;-73
2023/05/07 14:52:27;;;;;;;4.93;2.80;;;26.10;76.20;;;;;;5092707;28;20395;-72
2023/05/07 14:55:31;;;;;;;6.35;3.30;;;26.10;75.90;;;;;;5092569;28;20047;-72
2023/05/07 14:58:36;;;;;;;7.47;3.40;;;26.00;75.70;;;;;;5091628;28;20054;-74
2023/05/07 15:01:42;;;;;;;4.10;3.05;;;26.00;76.20;;;;;;5092104;28;20043;-73
2023/05/07 15:04:46;;;;;;;6.90;2.75;;;26.00;75.30;;;;;;5092262;28;20059;-73
2023/05/07 15:07:50;;;;;;;4.05;2.65;;;25.90;75.90;;;;;;5092372;28;20392;-73
2023/05/07 15:10:55;;;;;;;6.95;3.08;;;25.90;75.20;;;;;;5092331;28;20047;-72
2023/05/07 15:13:59;;;;;;;4.45;2.80;;;25.90;75.10;;;;;;5092099;28;20051;-72
2023/05/07 15:17:03;;;;;;;4.03;2.80;;;25.80;75.00;;;;;;5091857;28;20039;-73
2023/05/07 15:20:08;;;;;;;5.93;3.20;;;25.80;75.60;;;;;;5091108;28;20047;-73
2023/05/07 15:23:13;;;;;;;10.88;3.20;;;25.80;76.10;;;;;;5092272;28;20051;-73
2023/05/07 15:26:20;;;;;;;4.25;3.03;;;25.80;76.20;;;;;;5090826;28;20062;-73
2023/05/07 15:29:24;;;;;;;6.18;3.15;;;25.80;76.10;;;;;;5091068;28;20059;-73
2023/05/07 15:32:29;;;;;;;4.47;3.55;;;25.80;76.00;;;;;;5091461;28;20394;-73
2023/05/07 15:35:33;;;;;;;5.25;3.47;;;25.80;75.70;;;;;;5091441;28;20399;-73
2023/05/07 15:38:37;;;;;;;4.68;3.40;;;25.70;76.00;;;;;;5090575;28;20043;-73
2023/05/07 15:41:41;;;;;;;5.18;3.20;;;25.70;76.50;;;;;;5091765;28;20387;-72
2023/05/07 15:44:46;;;;;;;3.65;3.35;;;25.70;76.40;;;;;;5091647;28;20039;-72
2023/05/07 15:47:50;;;;;;;5.25;2.85;;;25.70;76.60;;;;;;5091565;28;20160;-72